Main page
METAR-TAF:

METAR-TAF

Airports :

Larnaca, Cyprus

Larnaca International Airport

latitude: 34-53N, longitude: 033-38E, elevation: 2 m

Current weather observation

The report was made 35 minutes ago, at 20:00 UTC
Wind 6 kt from the South/Southwest
Temperature 26°C
Humidity 79%
Pressure 1004 hPa
Visibility: 9000 m

METAR: LCLK 202000Z 21006KT 9000 NSC 26/22 Q1004 NOSIG

Time: 23:35 (20:35 UTC)

Forecast

The report was made 3 hours and 5 minutes ago, at 17:30 UTC
Forecast valid from 20 at 18 UTC to 21 at 18 UTC
Wind 6 kt from the West
Visibility 10 km or more
Few clouds at a height of 2500 ft
Probability 30% :
Temporary
from 20 at 21 UTC to 21 at 05 UTC
Visibility: 5000 m
Broken clouds at a height of 500 ft
mist
Becoming
from 21 at 08 UTC to 21 at 11 UTC
Wind 14 kt from the South/Southwest

TAF: LCLK 201730Z 2018/2118 27006KT 9999 FEW025 PROB30 TEMPO 2021/2105 5000 BR BKN005 BECMG 2108/2111 20014KT

Weather observations and forecasts of more than 4000 airports (METAR and TAF reports).

The available stations are represented by yellow and red dots on the map.

Hover mouse over dot to see the name of the station.

Then click to see weather observations and forecasts.

To change the map : click on the green buttons with a black cross to zoom in, on the green button with a dash to zoom out, or on the green arrows for adjacent maps.


METAR-TAF: